sensor_id;sensor_type;location;lat;lon;timestamp;P1;durP1;ratioP1;P2;durP2;ratioP2
57217;SDS011;43078;52.972;6.482;2023-02-23T00:01:54;52.03;;;30.77;;
57217;SDS011;43078;52.972;6.482;2023-02-23T00:04:21;54.13;;;33.85;;
57217;SDS011;43078;52.972;6.482;2023-02-23T00:06:48;44.72;;;27.10;;
57217;SDS011;43078;52.972;6.482;2023-02-23T00:09:16;46.08;;;28.63;;
57217;SDS011;43078;52.972;6.482;2023-02-23T00:11:52;47.60;;;28.77;;
57217;SDS011;43078;52.972;6.482;2023-02-23T00:14:19;67.15;;;40.15;;
57217;SDS011;43078;52.972;6.482;2023-02-23T00:16:48;42.40;;;27.98;;
57217;SDS011;43078;52.972;6.482;2023-02-23T00:19:14;45.53;;;29.15;;
57217;SDS011;43078;52.972;6.482;2023-02-23T00:21:40;50.50;;;31.20;;
57217;SDS011;43078;52.972;6.482;2023-02-23T00:24:07;49.42;;;27.20;;
57217;SDS011;43078;52.972;6.482;2023-02-23T00:26:38;42.58;;;27.52;;
57217;SDS011;43078;52.972;6.482;2023-02-23T00:29:07;49.90;;;30.88;;
57217;SDS011;43078;52.972;6.482;2023-02-23T00:31:37;44.35;;;26.95;;
57217;SDS011;43078;52.972;6.482;2023-02-23T00:34:03;48.90;;;28.45;;
57217;SDS011;43078;52.972;6.482;2023-02-23T00:36:30;56.10;;;33.15;;
57217;SDS011;43078;52.972;6.482;2023-02-23T00:38:58;55.05;;;33.40;;
57217;SDS011;43078;52.972;6.482;2023-02-23T00:41:26;54.35;;;34.85;;
57217;SDS011;43078;52.972;6.482;2023-02-23T00:43:56;62.50;;;37.08;;
57217;SDS011;43078;52.972;6.482;2023-02-23T00:46:24;54.28;;;33.58;;
57217;SDS011;43078;52.972;6.482;2023-02-23T00:48:52;58.58;;;35.85;;
57217;SDS011;43078;52.972;6.482;2023-02-23T00:51:22;50.22;;;30.88;;
57217;SDS011;43078;52.972;6.482;2023-02-23T00:53:56;52.03;;;30.08;;
57217;SDS011;43078;52.972;6.482;2023-02-23T00:56:23;58.70;;;35.53;;
57217;SDS011;43078;52.972;6.482;2023-02-23T00:58:49;52.90;;;30.63;;
57217;SDS011;43078;52.972;6.482;2023-02-23T01:01:15;48.25;;;29.02;;
57217;SDS011;43078;52.972;6.482;2023-02-23T01:03:42;70.95;;;41.13;;
57217;SDS011;43078;52.972;6.482;2023-02-23T01:06:10;66.95;;;38.83;;
57217;SDS011;43078;52.972;6.482;2023-02-23T01:08:38;48.78;;;30.15;;
57217;SDS011;43078;52.972;6.482;2023-02-23T01:11:06;45.85;;;28.33;;
57217;SDS011;43078;52.972;6.482;2023-02-23T01:13:36;43.90;;;28.55;;
57217;SDS011;43078;52.972;6.482;2023-02-23T01:16:07;55.70;;;31.98;;
57217;SDS011;43078;52.972;6.482;2023-02-23T01:18:35;46.58;;;28.98;;
57217;SDS011;43078;52.972;6.482;2023-02-23T01:21:04;65.88;;;37.53;;
57217;SDS011;43078;52.972;6.482;2023-02-23T01:23:37;50.13;;;31.02;;
57217;SDS011;43078;52.972;6.482;2023-02-23T01:26:03;73.28;;;40.88;;
57217;SDS011;43078;52.972;6.482;2023-02-23T01:28:28;66.40;;;40.58;;
57217;SDS011;43078;52.972;6.482;2023-02-23T01:30:54;46.63;;;29.77;;
57217;SDS011;43078;52.972;6.482;2023-02-23T01:33:20;46.88;;;29.98;;
57217;SDS011;43078;52.972;6.482;2023-02-23T01:35:55;50.70;;;32.92;;
57217;SDS011;43078;52.972;6.482;2023-02-23T01:38:22;59.80;;;35.85;;
57217;SDS011;43078;52.972;6.482;2023-02-23T01:40:47;59.35;;;34.45;;
57217;SDS011;43078;52.972;6.482;2023-02-23T01:43:14;42.50;;;27.95;;
57217;SDS011;43078;52.972;6.482;2023-02-23T01:45:42;61.55;;;36.72;;
57217;SDS011;43078;52.972;6.482;2023-02-23T01:48:12;45.65;;;28.88;;
57217;SDS011;43078;52.972;6.482;2023-02-23T01:50:43;44.25;;;27.77;;
57217;SDS011;43078;52.972;6.482;2023-02-23T01:53:21;67.47;;;38.90;;
57217;SDS011;43078;52.972;6.482;2023-02-23T01:55:53;52.92;;;27.95;;
57217;SDS011;43078;52.972;6.482;2023-02-23T01:58:22;51.67;;;31.90;;
57217;SDS011;43078;52.972;6.482;2023-02-23T02:00:51;48.95;;;29.92;;
57217;SDS011;43078;52.972;6.482;2023-02-23T02:08:47;42.95;;;28.60;;
57217;SDS011;43078;52.972;6.482;2023-02-23T02:11:19;63.35;;;35.95;;
57217;SDS011;43078;52.972;6.482;2023-02-23T02:25:23;67.05;;;37.63;;
57217;SDS011;43078;52.972;6.482;2023-02-23T02:37:03;49.55;;;29.70;;
57217;SDS011;43078;52.972;6.482;2023-02-23T02:45:40;63.67;;;35.40;;
57217;SDS011;43078;52.972;6.482;2023-02-23T02:48:17;67.78;;;38.50;;
57217;SDS011;43078;52.972;6.482;2023-02-23T02:54:22;59.17;;;34.95;;
57217;SDS011;43078;52.972;6.482;2023-02-23T02:56:54;50.65;;;31.08;;
57217;SDS011;43078;52.972;6.482;2023-02-23T02:59:22;47.22;;;28.92;;
57217;SDS011;43078;52.972;6.482;2023-02-23T03:02:20;65.07;;;35.67;;
57217;SDS011;43078;52.972;6.482;2023-02-23T03:05:15;56.97;;;33.22;;
57217;SDS011;43078;52.972;6.482;2023-02-23T03:11:11;48.15;;;28.95;;
57217;SDS011;43078;52.972;6.482;2023-02-23T03:23:27;58.63;;;33.73;;
57217;SDS011;43078;52.972;6.482;2023-02-23T03:29:51;64.15;;;36.47;;
57217;SDS011;43078;52.972;6.482;2023-02-23T03:32:48;49.15;;;29.30;;
57217;SDS011;43078;52.972;6.482;2023-02-23T03:38:37;73.68;;;38.80;;
57217;SDS011;43078;52.972;6.482;2023-02-23T03:41:23;69.68;;;39.25;;
57217;SDS011;43078;52.972;6.482;2023-02-23T03:44:17;63.75;;;33.92;;
57217;SDS011;43078;52.972;6.482;2023-02-23T03:47:11;64.50;;;35.38;;
57217;SDS011;43078;52.972;6.482;2023-02-23T03:49:59;83.07;;;43.08;;
57217;SDS011;43078;52.972;6.482;2023-02-23T03:52:49;55.28;;;31.67;;
57217;SDS011;43078;52.972;6.482;2023-02-23T03:55:38;54.22;;;30.90;;
57217;SDS011;43078;52.972;6.482;2023-02-23T03:58:43;54.80;;;31.52;;
57217;SDS011;43078;52.972;6.482;2023-02-23T04:01:30;58.10;;;31.38;;
57217;SDS011;43078;52.972;6.482;2023-02-23T04:04:16;76.70;;;39.60;;
57217;SDS011;43078;52.972;6.482;2023-02-23T04:07:01;64.90;;;35.58;;
57217;SDS011;43078;52.972;6.482;2023-02-23T04:09:47;70.40;;;37.63;;
57217;SDS011;43078;52.972;6.482;2023-02-23T04:15:35;58.97;;;34.28;;
57217;SDS011;43078;52.972;6.482;2023-02-23T04:18:04;46.58;;;28.38;;
57217;SDS011;43078;52.972;6.482;2023-02-23T04:20:31;52.65;;;30.17;;
57217;SDS011;43078;52.972;6.482;2023-02-23T04:22:57;53.95;;;32.78;;
57217;SDS011;43078;52.972;6.482;2023-02-23T04:25:23;54.03;;;30.80;;
57217;SDS011;43078;52.972;6.482;2023-02-23T04:27:49;52.05;;;29.83;;
57217;SDS011;43078;52.972;6.482;2023-02-23T04:30:14;48.33;;;29.13;;
57217;SDS011;43078;52.972;6.482;2023-02-23T04:32:40;72.15;;;37.78;;
57217;SDS011;43078;52.972;6.482;2023-02-23T04:35:08;51.53;;;29.60;;
57217;SDS011;43078;52.972;6.482;2023-02-23T04:37:34;66.60;;;36.00;;
57217;SDS011;43078;52.972;6.482;2023-02-23T04:39:59;56.47;;;30.45;;
57217;SDS011;43078;52.972;6.482;2023-02-23T04:42:25;52.25;;;28.73;;
57217;SDS011;43078;52.972;6.482;2023-02-23T04:44:51;63.58;;;34.35;;
57217;SDS011;43078;52.972;6.482;2023-02-23T04:47:16;53.47;;;28.63;;
57217;SDS011;43078;52.972;6.482;2023-02-23T04:49:42;55.78;;;33.15;;
57217;SDS011;43078;52.972;6.482;2023-02-23T04:52:08;64.35;;;35.53;;
57217;SDS011;43078;52.972;6.482;2023-02-23T04:54:37;62.15;;;33.83;;
57217;SDS011;43078;52.972;6.482;2023-02-23T04:57:03;49.83;;;29.30;;
57217;SDS011;43078;52.972;6.482;2023-02-23T04:59:29;50.50;;;29.98;;
57217;SDS011;43078;52.972;6.482;2023-02-23T05:01:55;52.03;;;30.38;;
57217;SDS011;43078;52.972;6.482;2023-02-23T05:04:21;50.30;;;28.30;;
57217;SDS011;43078;52.972;6.482;2023-02-23T05:06:46;50.20;;;29.75;;
57217;SDS011;43078;52.972;6.482;2023-02-23T05:09:12;61.00;;;33.22;;
57217;SDS011;43078;52.972;6.482;2023-02-23T05:11:38;50.72;;;29.58;;
57217;SDS011;43078;52.972;6.482;2023-02-23T05:14:03;47.08;;;28.67;;
57217;SDS011;43078;52.972;6.482;2023-02-23T05:16:29;47.88;;;28.45;;
57217;SDS011;43078;52.972;6.482;2023-02-23T05:18:55;61.13;;;33.13;;
57217;SDS011;43078;52.972;6.482;2023-02-23T05:21:21;50.22;;;29.35;;
57217;SDS011;43078;52.972;6.482;2023-02-23T05:23:47;58.17;;;31.80;;
57217;SDS011;43078;52.972;6.482;2023-02-23T05:26:13;46.10;;;27.90;;
57217;SDS011;43078;52.972;6.482;2023-02-23T05:28:40;47.72;;;28.23;;
57217;SDS011;43078;52.972;6.482;2023-02-23T05:31:06;49.45;;;28.30;;
57217;SDS011;43078;52.972;6.482;2023-02-23T05:33:33;52.65;;;29.70;;
57217;SDS011;43078;52.972;6.482;2023-02-23T05:38:37;48.70;;;27.83;;
57217;SDS011;43078;52.972;6.482;2023-02-23T05:41:05;52.50;;;29.92;;
57217;SDS011;43078;52.972;6.482;2023-02-23T05:43:31;52.80;;;30.27;;
57217;SDS011;43078;52.972;6.482;2023-02-23T05:45:57;47.90;;;27.65;;
57217;SDS011;43078;52.972;6.482;2023-02-23T05:48:23;52.47;;;28.48;;
57217;SDS011;43078;52.972;6.482;2023-02-23T05:50:48;47.90;;;27.83;;
57217;SDS011;43078;52.972;6.482;2023-02-23T05:53:14;50.05;;;27.95;;
57217;SDS011;43078;52.972;6.482;2023-02-23T05:55:40;54.92;;;28.63;;
57217;SDS011;43078;52.972;6.482;2023-02-23T05:58:05;53.72;;;28.83;;
57217;SDS011;43078;52.972;6.482;2023-02-23T06:00:31;49.22;;;27.23;;
57217;SDS011;43078;52.972;6.482;2023-02-23T06:02:56;46.40;;;26.42;;
57217;SDS011;43078;52.972;6.482;2023-02-23T06:05:22;46.80;;;26.67;;
57217;SDS011;43078;52.972;6.482;2023-02-23T06:07:48;46.13;;;25.58;;
57217;SDS011;43078;52.972;6.482;2023-02-23T06:10:14;43.58;;;25.20;;
57217;SDS011;43078;52.972;6.482;2023-02-23T06:12:39;46.05;;;25.95;;
57217;SDS011;43078;52.972;6.482;2023-02-23T06:15:05;50.80;;;26.15;;
57217;SDS011;43078;52.972;6.482;2023-02-23T06:17:31;39.97;;;24.73;;
57217;SDS011;43078;52.972;6.482;2023-02-23T06:19:57;44.05;;;25.60;;
57217;SDS011;43078;52.972;6.482;2023-02-23T06:22:25;38.92;;;23.88;;
57217;SDS011;43078;52.972;6.482;2023-02-23T06:24:51;40.92;;;23.58;;
57217;SDS011;43078;52.972;6.482;2023-02-23T06:27:17;41.17;;;25.05;;
57217;SDS011;43078;52.972;6.482;2023-02-23T06:29:42;42.75;;;24.80;;
57217;SDS011;43078;52.972;6.482;2023-02-23T06:32:08;41.20;;;23.83;;
57217;SDS011;43078;52.972;6.482;2023-02-23T06:34:34;40.72;;;23.88;;
57217;SDS011;43078;52.972;6.482;2023-02-23T06:37:00;38.15;;;22.85;;
57217;SDS011;43078;52.972;6.482;2023-02-23T06:39:26;38.58;;;22.63;;
57217;SDS011;43078;52.972;6.482;2023-02-23T06:41:51;45.85;;;24.90;;
57217;SDS011;43078;52.972;6.482;2023-02-23T06:44:17;38.25;;;22.58;;
57217;SDS011;43078;52.972;6.482;2023-02-23T06:46:42;38.13;;;22.20;;
57217;SDS011;43078;52.972;6.482;2023-02-23T06:49:09;32.97;;;20.73;;
57217;SDS011;43078;52.972;6.482;2023-02-23T06:51:35;39.75;;;22.65;;
57217;SDS011;43078;52.972;6.482;2023-02-23T06:54:01;37.25;;;22.15;;
57217;SDS011;43078;52.972;6.482;2023-02-23T06:56:27;42.00;;;23.42;;
57217;SDS011;43078;52.972;6.482;2023-02-23T06:58:52;36.15;;;21.83;;
57217;SDS011;43078;52.972;6.482;2023-02-23T07:01:18;35.75;;;22.20;;
57217;SDS011;43078;52.972;6.482;2023-02-23T07:03:45;36.13;;;21.80;;
57217;SDS011;43078;52.972;6.482;2023-02-23T07:06:10;35.35;;;20.75;;
57217;SDS011;43078;52.972;6.482;2023-02-23T07:08:36;34.53;;;21.13;;
57217;SDS011;43078;52.972;6.482;2023-02-23T07:11:06;36.40;;;21.50;;
57217;SDS011;43078;52.972;6.482;2023-02-23T07:13:37;39.58;;;22.27;;
57217;SDS011;43078;52.972;6.482;2023-02-23T07:16:03;35.35;;;20.80;;
57217;SDS011;43078;52.972;6.482;2023-02-23T07:18:29;45.65;;;26.08;;
57217;SDS011;43078;52.972;6.482;2023-02-23T07:20:55;37.95;;;22.92;;
57217;SDS011;43078;52.972;6.482;2023-02-23T07:23:21;39.90;;;23.88;;
57217;SDS011;43078;52.972;6.482;2023-02-23T07:25:48;33.28;;;21.00;;
57217;SDS011;43078;52.972;6.482;2023-02-23T07:28:15;35.00;;;20.85;;
57217;SDS011;43078;52.972;6.482;2023-02-23T07:30:40;33.92;;;21.90;;
57217;SDS011;43078;52.972;6.482;2023-02-23T07:33:06;42.83;;;24.17;;
57217;SDS011;43078;52.972;6.482;2023-02-23T07:35:31;41.58;;;24.80;;
57217;SDS011;43078;52.972;6.482;2023-02-23T07:37:57;38.65;;;21.48;;
57217;SDS011;43078;52.972;6.482;2023-02-23T07:40:23;36.20;;;21.67;;
57217;SDS011;43078;52.972;6.482;2023-02-23T07:42:49;34.58;;;20.65;;
57217;SDS011;43078;52.972;6.482;2023-02-23T07:45:15;37.75;;;22.40;;
57217;SDS011;43078;52.972;6.482;2023-02-23T07:47:41;31.85;;;19.90;;
57217;SDS011;43078;52.972;6.482;2023-02-23T07:50:07;29.60;;;19.15;;
57217;SDS011;43078;52.972;6.482;2023-02-23T07:52:37;33.60;;;21.02;;
57217;SDS011;43078;52.972;6.482;2023-02-23T07:55:06;35.10;;;22.02;;
57217;SDS011;43078;52.972;6.482;2023-02-23T07:57:33;42.13;;;23.38;;
57217;SDS011;43078;52.972;6.482;2023-02-23T07:59:59;41.33;;;23.35;;
57217;SDS011;43078;52.972;6.482;2023-02-23T08:02:25;33.58;;;20.13;;
57217;SDS011;43078;52.972;6.482;2023-02-23T08:04:53;32.83;;;19.83;;
57217;SDS011;43078;52.972;6.482;2023-02-23T08:07:19;36.80;;;21.45;;
57217;SDS011;43078;52.972;6.482;2023-02-23T08:09:47;32.88;;;19.35;;
57217;SDS011;43078;52.972;6.482;2023-02-23T08:12:15;42.63;;;23.15;;
57217;SDS011;43078;52.972;6.482;2023-02-23T08:14:41;35.00;;;20.77;;
57217;SDS011;43078;52.972;6.482;2023-02-23T08:17:07;36.10;;;21.98;;
57217;SDS011;43078;52.972;6.482;2023-02-23T08:19:32;32.50;;;19.85;;
57217;SDS011;43078;52.972;6.482;2023-02-23T08:21:58;41.20;;;22.73;;
57217;SDS011;43078;52.972;6.482;2023-02-23T08:24:24;44.35;;;23.98;;
57217;SDS011;43078;52.972;6.482;2023-02-23T08:26:51;38.63;;;22.73;;
57217;SDS011;43078;52.972;6.482;2023-02-23T08:29:17;34.72;;;19.85;;
57217;SDS011;43078;52.972;6.482;2023-02-23T08:31:44;37.50;;;20.38;;
57217;SDS011;43078;52.972;6.482;2023-02-23T08:34:10;38.28;;;21.38;;
57217;SDS011;43078;52.972;6.482;2023-02-23T08:36:36;51.58;;;27.30;;
57217;SDS011;43078;52.972;6.482;2023-02-23T08:39:01;33.78;;;20.90;;
57217;SDS011;43078;52.972;6.482;2023-02-23T08:41:27;35.08;;;20.00;;
57217;SDS011;43078;52.972;6.482;2023-02-23T08:43:53;33.05;;;19.85;;
57217;SDS011;43078;52.972;6.482;2023-02-23T08:46:18;32.97;;;19.75;;
57217;SDS011;43078;52.972;6.482;2023-02-23T08:48:45;33.00;;;18.65;;
57217;SDS011;43078;52.972;6.482;2023-02-23T08:51:11;33.45;;;19.85;;
57217;SDS011;43078;52.972;6.482;2023-02-23T08:53:38;33.65;;;19.83;;
57217;SDS011;43078;52.972;6.482;2023-02-23T08:56:04;32.90;;;19.92;;
57217;SDS011;43078;52.972;6.482;2023-02-23T08:58:32;51.50;;;27.25;;
57217;SDS011;43078;52.972;6.482;2023-02-23T09:00:59;52.03;;;27.50;;
57217;SDS011;43078;52.972;6.482;2023-02-23T09:03:25;36.05;;;21.60;;
57217;SDS011;43078;52.972;6.482;2023-02-23T09:05:55;34.20;;;19.55;;
57217;SDS011;43078;52.972;6.482;2023-02-23T09:08:22;43.35;;;24.73;;
57217;SDS011;43078;52.972;6.482;2023-02-23T09:10:48;38.63;;;21.58;;
57217;SDS011;43078;52.972;6.482;2023-02-23T09:13:13;53.88;;;28.40;;
57217;SDS011;43078;52.972;6.482;2023-02-23T09:15:40;55.83;;;29.67;;
57217;SDS011;43078;52.972;6.482;2023-02-23T09:18:06;52.30;;;27.83;;
57217;SDS011;43078;52.972;6.482;2023-02-23T09:20:34;48.90;;;26.52;;
57217;SDS011;43078;52.972;6.482;2023-02-23T09:23:00;59.17;;;30.58;;
57217;SDS011;43078;52.972;6.482;2023-02-23T09:25:25;52.13;;;28.63;;
57217;SDS011;43078;52.972;6.482;2023-02-23T09:27:53;52.40;;;27.35;;
57217;SDS011;43078;52.972;6.482;2023-02-23T09:30:21;42.22;;;23.42;;
57217;SDS011;43078;52.972;6.482;2023-02-23T09:32:47;44.13;;;24.38;;
57217;SDS011;43078;52.972;6.482;2023-02-23T09:35:14;45.58;;;24.90;;
57217;SDS011;43078;52.972;6.482;2023-02-23T09:37:50;43.80;;;24.85;;
57217;SDS011;43078;52.972;6.482;2023-02-23T09:40:51;45.90;;;24.83;;
57217;SDS011;43078;52.972;6.482;2023-02-23T09:49:10;47.78;;;25.40;;
57217;SDS011;43078;52.972;6.482;2023-02-23T09:51:45;46.85;;;26.05;;
57217;SDS011;43078;52.972;6.482;2023-02-23T09:54:13;40.47;;;22.27;;
57217;SDS011;43078;52.972;6.482;2023-02-23T09:57:02;47.90;;;26.13;;
57217;SDS011;43078;52.972;6.482;2023-02-23T09:59:34;56.85;;;27.52;;
57217;SDS011;43078;52.972;6.482;2023-02-23T10:02:15;47.28;;;25.10;;
57217;SDS011;43078;52.972;6.482;2023-02-23T10:05:01;40.08;;;23.08;;
57217;SDS011;43078;52.972;6.482;2023-02-23T10:07:55;49.45;;;27.33;;
57217;SDS011;43078;52.972;6.482;2023-02-23T10:13:12;49.63;;;25.73;;
57217;SDS011;43078;52.972;6.482;2023-02-23T10:18:36;44.65;;;23.38;;
57217;SDS011;43078;52.972;6.482;2023-02-23T10:21:33;45.60;;;24.42;;
57217;SDS011;43078;52.972;6.482;2023-02-23T10:24:04;50.95;;;25.92;;
57217;SDS011;43078;52.972;6.482;2023-02-23T10:27:15;56.78;;;27.38;;
57217;SDS011;43078;52.972;6.482;2023-02-23T10:29:54;48.53;;;25.33;;
57217;SDS011;43078;52.972;6.482;2023-02-23T10:35:16;43.83;;;23.63;;
57217;SDS011;43078;52.972;6.482;2023-02-23T10:37:51;47.35;;;25.05;;
57217;SDS011;43078;52.972;6.482;2023-02-23T10:40:23;40.97;;;23.23;;
57217;SDS011;43078;52.972;6.482;2023-02-23T10:43:12;54.13;;;24.17;;
57217;SDS011;43078;52.972;6.482;2023-02-23T10:49:18;50.65;;;26.80;;
57217;SDS011;43078;52.972;6.482;2023-02-23T10:51:47;48.08;;;24.63;;
57217;SDS011;43078;52.972;6.482;2023-02-23T10:57:27;57.08;;;27.23;;
57217;SDS011;43078;52.972;6.482;2023-02-23T11:02:44;49.75;;;25.60;;
57217;SDS011;43078;52.972;6.482;2023-02-23T11:08:09;55.42;;;27.13;;
57217;SDS011;43078;52.972;6.482;2023-02-23T11:10:43;59.63;;;27.45;;
57217;SDS011;43078;52.972;6.482;2023-02-23T11:13:21;60.95;;;27.55;;
57217;SDS011;43078;52.972;6.482;2023-02-23T11:15:47;50.25;;;25.48;;
57217;SDS011;43078;52.972;6.482;2023-02-23T11:18:20;59.92;;;28.45;;
57217;SDS011;43078;52.972;6.482;2023-02-23T11:20:47;46.92;;;24.70;;
57217;SDS011;43078;52.972;6.482;2023-02-23T11:23:20;56.80;;;27.60;;
57217;SDS011;43078;52.972;6.482;2023-02-23T11:26:00;60.05;;;28.23;;
57217;SDS011;43078;52.972;6.482;2023-02-23T11:28:33;62.03;;;28.23;;
57217;SDS011;43078;52.972;6.482;2023-02-23T11:31:35;45.22;;;22.80;;
57217;SDS011;43078;52.972;6.482;2023-02-23T11:33:59;59.53;;;27.73;;
57217;SDS011;43078;52.972;6.482;2023-02-23T11:36:32;62.70;;;29.25;;
57217;SDS011;43078;52.972;6.482;2023-02-23T11:44:37;66.53;;;29.15;;
57217;SDS011;43078;52.972;6.482;2023-02-23T11:47:02;55.42;;;26.58;;
57217;SDS011;43078;52.972;6.482;2023-02-23T11:49:32;68.50;;;30.40;;
57217;SDS011;43078;52.972;6.482;2023-02-23T11:52:00;65.90;;;27.67;;
57217;SDS011;43078;52.972;6.482;2023-02-23T11:54:30;61.53;;;26.52;;
57217;SDS011;43078;52.972;6.482;2023-02-23T11:56:59;75.07;;;29.58;;
57217;SDS011;43078;52.972;6.482;2023-02-23T11:59:32;70.60;;;27.83;;
57217;SDS011;43078;52.972;6.482;2023-02-23T12:02:13;72.57;;;28.70;;
57217;SDS011;43078;52.972;6.482;2023-02-23T12:05:00;67.05;;;26.17;;
57217;SDS011;43078;52.972;6.482;2023-02-23T12:07:40;74.63;;;27.67;;
57217;SDS011;43078;52.972;6.482;2023-02-23T12:15:36;67.00;;;24.65;;
57217;SDS011;43078;52.972;6.482;2023-02-23T12:18:38;69.78;;;25.10;;
57217;SDS011;43078;52.972;6.482;2023-02-23T12:21:20;67.55;;;24.52;;
57217;SDS011;43078;52.972;6.482;2023-02-23T12:24:00;71.20;;;25.17;;
57217;SDS011;43078;52.972;6.482;2023-02-23T12:26:54;69.38;;;24.17;;
57217;SDS011;43078;52.972;6.482;2023-02-23T12:35:15;64.93;;;22.70;;
57217;SDS011;43078;52.972;6.482;2023-02-23T12:37:50;57.65;;;22.27;;
57217;SDS011;43078;52.972;6.482;2023-02-23T12:40:26;71.18;;;23.15;;
57217;SDS011;43078;52.972;6.482;2023-02-23T12:43:06;60.72;;;22.85;;
57217;SDS011;43078;52.972;6.482;2023-02-23T12:45:48;62.03;;;22.23;;
57217;SDS011;43078;52.972;6.482;2023-02-23T12:48:30;59.60;;;21.70;;
57217;SDS011;43078;52.972;6.482;2023-02-23T12:51:21;61.08;;;21.98;;
57217;SDS011;43078;52.972;6.482;2023-02-23T12:53:49;68.22;;;24.02;;
57217;SDS011;43078;52.972;6.482;2023-02-23T12:57:00;63.67;;;22.67;;
57217;SDS011;43078;52.972;6.482;2023-02-23T13:02:16;67.13;;;23.30;;
57217;SDS011;43078;52.972;6.482;2023-02-23T13:13:04;71.03;;;26.08;;
57217;SDS011;43078;52.972;6.482;2023-02-23T13:24:38;86.47;;;28.45;;
57217;SDS011;43078;52.972;6.482;2023-02-23T13:29:49;88.10;;;29.60;;
57217;SDS011;43078;52.972;6.482;2023-02-23T13:32:31;83.43;;;29.40;;
57217;SDS011;43078;52.972;6.482;2023-02-23T13:37:50;95.85;;;31.27;;
57217;SDS011;43078;52.972;6.482;2023-02-23T13:40:21;84.78;;;28.75;;
57217;SDS011;43078;52.972;6.482;2023-02-23T13:43:27;80.82;;;28.17;;
57217;SDS011;43078;52.972;6.482;2023-02-23T13:52:13;64.03;;;22.77;;
57217;SDS011;43078;52.972;6.482;2023-02-23T13:55:48;53.05;;;17.45;;
57217;SDS011;43078;52.972;6.482;2023-02-23T13:58:12;31.45;;;10.30;;
57217;SDS011;43078;52.972;6.482;2023-02-23T14:00:39;25.95;;;8.23;;
57217;SDS011;43078;52.972;6.482;2023-02-23T14:03:05;25.88;;;8.15;;
57217;SDS011;43078;52.972;6.482;2023-02-23T14:05:42;35.60;;;12.32;;
57217;SDS011;43078;52.972;6.482;2023-02-23T14:08:17;28.55;;;9.02;;
57217;SDS011;43078;52.972;6.482;2023-02-23T14:10:58;31.50;;;8.75;;
57217;SDS011;43078;52.972;6.482;2023-02-23T14:13:29;23.95;;;6.45;;
57217;SDS011;43078;52.972;6.482;2023-02-23T14:16:33;28.38;;;5.75;;
57217;SDS011;43078;52.972;6.482;2023-02-23T14:19:11;31.85;;;9.30;;
57217;SDS011;43078;52.972;6.482;2023-02-23T14:22:18;32.63;;;10.75;;
57217;SDS011;43078;52.972;6.482;2023-02-23T14:24:46;40.25;;;8.82;;
57217;SDS011;43078;52.972;6.482;2023-02-23T14:27:53;30.85;;;8.95;;
57217;SDS011;43078;52.972;6.482;2023-02-23T14:30:25;35.45;;;6.93;;
57217;SDS011;43078;52.972;6.482;2023-02-23T14:32:52;27.25;;;6.35;;
57217;SDS011;43078;52.972;6.482;2023-02-23T14:40:59;28.20;;;5.50;;
57217;SDS011;43078;52.972;6.482;2023-02-23T14:46:09;29.92;;;5.40;;
57217;SDS011;43078;52.972;6.482;2023-02-23T14:48:43;30.13;;;5.55;;
57217;SDS011;43078;52.972;6.482;2023-02-23T14:51:24;25.63;;;5.00;;
57217;SDS011;43078;52.972;6.482;2023-02-23T14:56:58;33.53;;;5.53;;
57217;SDS011;43078;52.972;6.482;2023-02-23T14:59:28;32.17;;;6.07;;
57217;SDS011;43078;52.972;6.482;2023-02-23T15:02:03;33.45;;;5.65;;
57217;SDS011;43078;52.972;6.482;2023-02-23T15:04:33;40.78;;;5.82;;
57217;SDS011;43078;52.972;6.482;2023-02-23T15:07:03;38.05;;;6.50;;
57217;SDS011;43078;52.972;6.482;2023-02-23T15:12:21;28.85;;;5.57;;
57217;SDS011;43078;52.972;6.482;2023-02-23T15:14:54;34.60;;;6.25;;
57217;SDS011;43078;52.972;6.482;2023-02-23T15:17:23;25.90;;;5.40;;
57217;SDS011;43078;52.972;6.482;2023-02-23T15:19:55;32.92;;;4.97;;
57217;SDS011;43078;52.972;6.482;2023-02-23T15:22:41;32.97;;;5.35;;
57217;SDS011;43078;52.972;6.482;2023-02-23T15:25:18;30.08;;;5.53;;
57217;SDS011;43078;52.972;6.482;2023-02-23T15:27:50;27.83;;;5.65;;
57217;SDS011;43078;52.972;6.482;2023-02-23T15:30:24;34.63;;;6.10;;
57217;SDS011;43078;52.972;6.482;2023-02-23T15:33:04;30.65;;;5.15;;
57217;SDS011;43078;52.972;6.482;2023-02-23T15:35:40;32.97;;;5.80;;
57217;SDS011;43078;52.972;6.482;2023-02-23T15:38:24;29.30;;;7.28;;
57217;SDS011;43078;52.972;6.482;2023-02-23T15:40:57;25.77;;;4.95;;
57217;SDS011;43078;52.972;6.482;2023-02-23T15:43:27;25.10;;;5.35;;
57217;SDS011;43078;52.972;6.482;2023-02-23T15:45:57;36.58;;;5.93;;
57217;SDS011;43078;52.972;6.482;2023-02-23T15:48:30;37.75;;;5.50;;
57217;SDS011;43078;52.972;6.482;2023-02-23T15:51:28;28.98;;;5.13;;
57217;SDS011;43078;52.972;6.482;2023-02-23T15:54:14;24.30;;;5.47;;
57217;SDS011;43078;52.972;6.482;2023-02-23T15:56:56;29.33;;;5.30;;
57217;SDS011;43078;52.972;6.482;2023-02-23T15:59:27;30.88;;;5.32;;
57217;SDS011;43078;52.972;6.482;2023-02-23T16:02:08;27.08;;;4.90;;
57217;SDS011;43078;52.972;6.482;2023-02-23T16:04:43;23.20;;;5.07;;
57217;SDS011;43078;52.972;6.482;2023-02-23T16:07:20;26.70;;;4.82;;
57217;SDS011;43078;52.972;6.482;2023-02-23T16:12:39;35.22;;;10.02;;
57217;SDS011;43078;52.972;6.482;2023-02-23T16:15:27;31.27;;;5.95;;
57217;SDS011;43078;52.972;6.482;2023-02-23T16:18:09;39.47;;;4.85;;
57217;SDS011;43078;52.972;6.482;2023-02-23T16:20:41;28.17;;;4.35;;
57217;SDS011;43078;52.972;6.482;2023-02-23T16:23:29;23.10;;;4.85;;
57217;SDS011;43078;52.972;6.482;2023-02-23T16:28:53;30.80;;;6.25;;
57217;SDS011;43078;52.972;6.482;2023-02-23T16:34:34;27.95;;;4.70;;
57217;SDS011;43078;52.972;6.482;2023-02-23T16:37:16;25.65;;;4.07;;
57217;SDS011;43078;52.972;6.482;2023-02-23T16:39:43;21.40;;;4.22;;
57217;SDS011;43078;52.972;6.482;2023-02-23T16:50:00;28.20;;;4.03;;
57217;SDS011;43078;52.972;6.482;2023-02-23T16:52:46;21.88;;;4.00;;
57217;SDS011;43078;52.972;6.482;2023-02-23T16:55:17;29.55;;;4.03;;
57217;SDS011;43078;52.972;6.482;2023-02-23T16:57:50;18.00;;;3.17;;
57217;SDS011;43078;52.972;6.482;2023-02-23T17:00:26;28.38;;;3.72;;
57217;SDS011;43078;52.972;6.482;2023-02-23T17:03:04;22.63;;;4.68;;
57217;SDS011;43078;52.972;6.482;2023-02-23T17:05:33;19.48;;;3.60;;
57217;SDS011;43078;52.972;6.482;2023-02-23T17:08:04;20.73;;;3.45;;
57217;SDS011;43078;52.972;6.482;2023-02-23T17:13:15;17.98;;;3.42;;
57217;SDS011;43078;52.972;6.482;2023-02-23T17:15:43;22.80;;;2.70;;
57217;SDS011;43078;52.972;6.482;2023-02-23T17:18:42;16.45;;;3.22;;
57217;SDS011;43078;52.972;6.482;2023-02-23T17:21:10;18.27;;;3.05;;
57217;SDS011;43078;52.972;6.482;2023-02-23T17:23:52;12.13;;;2.92;;
57217;SDS011;43078;52.972;6.482;2023-02-23T17:26:23;21.08;;;3.20;;
57217;SDS011;43078;52.972;6.482;2023-02-23T17:28:49;18.55;;;3.35;;
57217;SDS011;43078;52.972;6.482;2023-02-23T17:31:16;17.10;;;2.95;;
57217;SDS011;43078;52.972;6.482;2023-02-23T17:34:22;20.85;;;3.00;;
57217;SDS011;43078;52.972;6.482;2023-02-23T17:37:00;13.75;;;2.90;;
57217;SDS011;43078;52.972;6.482;2023-02-23T17:39:28;20.38;;;3.33;;
57217;SDS011;43078;52.972;6.482;2023-02-23T17:41:54;16.58;;;2.70;;
57217;SDS011;43078;52.972;6.482;2023-02-23T17:44:22;16.92;;;2.92;;